CYYZ

Lester B. Pearson International Airport

ICAO Code CYYZ
IATA Code YYZ
Name Lester B. Pearson International Airport
Location Toronto, Ontario, CA
Elevation 569 Feet / 173.4 Meters
Latitude 43.67720032
Longitude -79.63059998
METAR CYYZ 080700Z 30004KT 15SM FEW075 SCT170 03/01 A2987 RMK AC2AC2 SLP121
Extra information Display Charts and CFS
Display NOTAMS
Runway Length Width Surface Elevation
05 11120 ft 200 ft ASP/CONC 564 ft
06L 9697 ft 200 ft ASP 529 ft
06R 9000 ft 200 ft ASP 525 ft
15L 11050 ft 200 ft ASP 557 ft
15R 9088 ft 200 ft ASP 551 ft
23 11120 ft 200 ft ASP/CONC 560 ft
24R 9697 ft 200 ft ASP 546 ft
24L 9000 ft 200 ft ASP 547 ft
33R 11050 ft 200 ft ASP 544 ft
33L 9088 ft 200 ft ASP 544 ft